LFSN/ENC METAR and TAF weather

Enter ICAO airport designator
Station Type Date Time Source
LFSN METAR 2019/02/21 16:00 UTC NOAA

LFSN 211600Z AUTO 31008KT 9999 FEW047 15/04 Q1028


Station Type Date Time Source
LFSN Decoded METAR 2019/02/21 16:00 UTC NOAA

Nancy / Essey, France (LFSN) 48-41N 006-13E 217M
Feb 21, 2019 - 11:00 AM EST / 2019.02.21 1600 UTC
Wind: from the NW (310 degrees) at 9 MPH (8 KT):0
Visibility: greater than 7 mile(s):0
Sky conditions: mostly clear
Temperature: 59 F (15 C)
Dew Point: 39 F (4 C)
Relative Humidity: 47%
Pressure (altimeter): 30.36 in. Hg (1028 hPa)
ob: LFSN 211600Z AUTO 31008KT 9999 FEW047 15/04 Q1028
cycle: 16

Station Type Date Time Source
LFSN TAF 2012/03/14 16:58 UTC NOAA

TAF LFSN 141600Z 1416/1512 CNL


Example: see airport list